Time;durP1;ratioP1;P1;durP2;ratioP2;P2;SDS_P1;SDS_P2;PMS_P1;PMS_P2;Temp;Humidity;BMP_temperature;BMP_pressure;BME280_temperature;BME280_humidity;BME280_pressure;Samples;Min_cycle;Max_cycle;Signal;HPM_P1;HPM_P2
2021/06/19 00:00:33;;;;;;;21.48;9.07;;;;;;;;;;1912581;75;20087;-72
2021/06/19 00:02:59;;;;;;;20.45;9.05;;;;;;;;;;1910654;67;20080;-71
2021/06/19 00:05:25;;;;;;;17.25;9.15;;;;;;;;;;1910303;75;20088;-72
2021/06/19 00:07:51;;;;;;;16.02;9.07;;;;;;;;;;1939093;67;20076;-73
2021/06/19 00:10:17;;;;;;;22.80;10.13;;;;;;;;;;1910057;67;20087;-72
2021/06/19 00:12:44;;;;;;;22.92;11.48;;;;;;;;;;1909593;75;20566;-72
2021/06/19 00:15:13;;;;;;;16.70;9.95;;;;;;;;;;1909677;75;20091;-73
2021/06/19 00:17:39;;;;;;;17.88;10.60;;;;;;;;;;1995028;67;20076;-71
2021/06/19 00:20:11;;;;;;;17.02;10.02;;;;;;;;;;1912983;75;20071;-73
2021/06/19 00:22:37;;;;;;;25.95;11.52;;;;;;;;;;1912455;75;20088;-71
2021/06/19 00:25:04;;;;;;;19.50;10.13;;;;;;;;;;1913010;75;20536;-72
2021/06/19 00:27:29;;;;;;;23.75;10.43;;;;;;;;;;1911488;75;20076;-73
2021/06/19 00:29:55;;;;;;;19.83;11.50;;;;;;;;;;1909814;75;20077;-72
2021/06/19 00:32:20;;;;;;;21.85;11.35;;;;;;;;;;1909786;75;20080;-72
2021/06/19 00:34:45;;;;;;;18.13;10.93;;;;;;;;;;1909718;75;20087;-72
2021/06/19 00:37:12;;;;;;;17.17;10.77;;;;;;;;;;1959034;67;20110;-72
2021/06/19 00:39:38;;;;;;;21.40;11.48;;;;;;;;;;1912769;75;20083;-71
2021/06/19 00:42:04;;;;;;;21.40;12.10;;;;;;;;;;1912420;75;20080;-71
2021/06/19 00:44:29;;;;;;;22.92;11.35;;;;;;;;;;1912131;75;20136;-72
2021/06/19 00:46:55;;;;;;;14.77;11.65;;;;;;;;;;1911809;75;20095;-72
2021/06/19 00:49:22;;;;;;;17.92;12.00;;;;;;;;;;1909465;75;20095;-72
2021/06/19 00:51:48;;;;;;;16.85;12.70;;;;;;;;;;1909377;75;20079;-71
2021/06/19 00:54:14;;;;;;;21.05;11.90;;;;;;;;;;1909472;75;20084;-72
2021/06/19 00:56:40;;;;;;;19.83;12.52;;;;;;;;;;1913129;67;20080;-72
2021/06/19 00:59:07;;;;;;;19.83;11.65;;;;;;;;;;1909724;75;20080;-72
2021/06/19 01:01:33;;;;;;;22.50;12.57;;;;;;;;;;1909529;75;20080;-72
2021/06/19 01:04:00;;;;;;;19.55;11.38;;;;;;;;;;1912553;67;20141;-72
2021/06/19 01:06:25;;;;;;;21.10;12.32;;;;;;;;;;1912411;75;20084;-72
2021/06/19 01:08:51;;;;;;;21.88;11.45;;;;;;;;;;1912260;75;20098;-71
2021/06/19 01:11:21;;;;;;;30.67;12.63;;;;;;;;;;1912325;75;20388;-72
2021/06/19 01:13:47;;;;;;;20.38;11.60;;;;;;;;;;1912262;67;20544;-72
2021/06/19 01:16:12;;;;;;;19.92;12.30;;;;;;;;;;1912419;67;20076;-72
2021/06/19 01:18:37;;;;;;;22.08;12.02;;;;;;;;;;1909746;75;20092;-73
2021/06/19 01:21:03;;;;;;;18.02;11.85;;;;;;;;;;1909976;75;20485;-73
2021/06/19 01:23:28;;;;;;;21.20;11.30;;;;;;;;;;1984925;67;20087;-73
2021/06/19 01:25:54;;;;;;;24.23;11.65;;;;;;;;;;1912720;75;20512;-73
2021/06/19 01:28:19;;;;;;;18.80;11.43;;;;;;;;;;1918486;67;20186;-73
2021/06/19 01:30:47;;;;;;;18.60;11.52;;;;;;;;;;1912790;75;20080;-73
2021/06/19 01:33:12;;;;;;;20.00;11.57;;;;;;;;;;1965430;67;20076;-73
2021/06/19 01:35:38;;;;;;;17.88;12.55;;;;;;;;;;1909636;75;20455;-73
2021/06/19 01:38:05;;;;;;;17.98;12.27;;;;;;;;;;1909647;75;20091;-72
2021/06/19 01:40:31;;;;;;;18.10;11.85;;;;;;;;;;1909433;75;20080;-73
2021/06/19 01:42:58;;;;;;;25.33;11.43;;;;;;;;;;2001988;67;20169;-74
2021/06/19 01:45:26;;;;;;;18.48;11.57;;;;;;;;;;1909486;75;20081;-73
2021/06/19 01:47:53;;;;;;;22.50;11.73;;;;;;;;;;1909267;75;20438;-74
2021/06/19 01:50:21;;;;;;;21.30;12.00;;;;;;;;;;1909849;75;20094;-72
2021/06/19 01:52:46;;;;;;;20.27;11.82;;;;;;;;;;1990725;67;20376;-72
2021/06/19 01:55:13;;;;;;;23.88;12.35;;;;;;;;;;1912577;75;20084;-72
2021/06/19 01:57:39;;;;;;;23.77;11.13;;;;;;;;;;1912617;75;20405;-73
2021/06/19 02:00:11;;;;;;;26.17;11.20;;;;;;;;;;1912877;75;20084;-73
2021/06/19 02:02:38;;;;;;;23.08;12.68;;;;;;;;;;1976937;67;20128;-73
2021/06/19 02:05:05;;;;;;;31.48;11.98;;;;;;;;;;1910315;75;20080;-73
2021/06/19 02:07:44;;;;;;;23.35;11.10;;;;;;;;;;1910467;75;20088;-72
2021/06/19 02:10:10;;;;;;;21.02;10.77;;;;;;;;;;1910121;75;20571;-73
2021/06/19 02:12:35;;;;;;;20.88;10.70;;;;;;;;;;1912210;67;20095;-72
2021/06/19 02:15:00;;;;;;;20.90;10.88;;;;;;;;;;1911061;67;20088;-72
2021/06/19 02:17:26;;;;;;;16.58;9.93;;;;;;;;;;1913032;67;20087;-73
2021/06/19 02:19:51;;;;;;;20.02;10.32;;;;;;;;;;1913265;75;20135;-72
2021/06/19 02:22:16;;;;;;;18.00;10.30;;;;;;;;;;1912721;67;20091;-72
2021/06/19 02:24:42;;;;;;;16.92;9.57;;;;;;;;;;1910078;75;20401;-72
2021/06/19 02:27:12;;;;;;;21.00;9.88;;;;;;;;;;1910433;75;20095;-73
2021/06/19 02:29:39;;;;;;;14.50;9.60;;;;;;;;;;1910638;75;20131;-73
2021/06/19 02:32:06;;;;;;;17.38;10.07;;;;;;;;;;1924594;67;20366;-72
2021/06/19 02:34:32;;;;;;;18.25;9.95;;;;;;;;;;1915517;67;20096;-71
2021/06/19 02:36:58;;;;;;;19.00;9.95;;;;;;;;;;1936150;67;20080;-73
2021/06/19 02:39:23;;;;;;;17.05;9.52;;;;;;;;;;1913205;75;20127;-72
2021/06/19 02:41:49;;;;;;;14.45;8.55;;;;;;;;;;1918100;67;20127;-72
2021/06/19 02:44:14;;;;;;;15.05;9.25;;;;;;;;;;2070801;67;20083;-73
2021/06/19 02:46:39;;;;;;;16.25;9.38;;;;;;;;;;1950646;67;20481;-73
2021/06/19 02:49:04;;;;;;;21.98;9.75;;;;;;;;;;1910251;75;20486;-72
2021/06/19 02:51:30;;;;;;;16.05;8.68;;;;;;;;;;1910641;75;20094;-73
2021/06/19 02:53:55;;;;;;;17.05;8.18;;;;;;;;;;2022200;67;20084;-74
2021/06/19 02:56:20;;;;;;;15.50;8.43;;;;;;;;;;1913185;75;20145;-73
2021/06/19 02:58:46;;;;;;;18.52;7.95;;;;;;;;;;1913185;75;20083;-73
2021/06/19 03:01:11;;;;;;;13.60;7.78;;;;;;;;;;1912890;75;20116;-73
2021/06/19 03:03:37;;;;;;;16.60;8.38;;;;;;;;;;1911227;67;20504;-73
2021/06/19 03:06:02;;;;;;;16.95;8.05;;;;;;;;;;1910067;75;20081;-74
2021/06/19 03:08:29;;;;;;;15.35;7.35;;;;;;;;;;1910665;75;20134;-73
2021/06/19 03:10:54;;;;;;;12.75;7.50;;;;;;;;;;1910450;75;20084;-73
2021/06/19 03:13:20;;;;;;;14.55;7.30;;;;;;;;;;2010837;67;20418;-72
2021/06/19 03:15:45;;;;;;;14.45;7.82;;;;;;;;;;1912886;75;20136;-73
2021/06/19 03:18:10;;;;;;;15.43;7.15;;;;;;;;;;1912845;75;20084;-73
2021/06/19 03:20:36;;;;;;;18.63;8.00;;;;;;;;;;1912948;75;20144;-72
2021/06/19 03:23:04;;;;;;;16.27;7.57;;;;;;;;;;1911975;67;20124;-73
2021/06/19 03:25:32;;;;;;;25.02;8.80;;;;;;;;;;1909761;67;20084;-73
2021/06/19 03:27:59;;;;;;;16.00;8.07;;;;;;;;;;1916599;67;20382;-73
2021/06/19 03:30:25;;;;;;;14.57;7.53;;;;;;;;;;1911166;75;20091;-72
2021/06/19 03:32:51;;;;;;;14.07;7.63;;;;;;;;;;1913184;67;20119;-73
2021/06/19 03:35:17;;;;;;;10.43;6.40;;;;;;;;;;1914334;75;20106;-73
2021/06/19 03:37:45;;;;;;;15.30;6.97;;;;;;;;;;1913845;75;20083;-73
2021/06/19 03:40:12;;;;;;;14.48;6.65;;;;;;;;;;1913228;75;20084;-74
2021/06/19 03:42:38;;;;;;;12.70;6.57;;;;;;;;;;1912915;67;20084;-73
2021/06/19 03:45:06;;;;;;;21.45;5.97;;;;;;;;;;1910347;75;20080;-73
2021/06/19 03:47:31;;;;;;;9.55;5.63;;;;;;;;;;1910207;75;20127;-72
2021/06/19 03:49:57;;;;;;;9.88;5.43;;;;;;;;;;1909944;75;20489;-72
2021/06/19 03:52:22;;;;;;;12.88;5.97;;;;;;;;;;1938662;67;20080;-72
2021/06/19 03:54:48;;;;;;;11.02;5.13;;;;;;;;;;2034423;67;20083;-76
2021/06/19 03:57:32;;;;;;;9.68;5.10;;;;;;;;;;1913061;75;20083;-72
2021/06/19 03:59:58;;;;;;;7.57;4.80;;;;;;;;;;1913098;75;20149;-73
2021/06/19 04:02:25;;;;;;;13.70;4.50;;;;;;;;;;1913398;67;20084;-73
2021/06/19 04:04:51;;;;;;;8.43;4.32;;;;;;;;;;1909687;75;20080;-72
2021/06/19 04:07:20;;;;;;;12.45;4.57;;;;;;;;;;1909745;75;20080;-73
2021/06/19 04:09:48;;;;;;;8.70;3.90;;;;;;;;;;1909603;75;20085;-73
2021/06/19 04:12:14;;;;;;;12.45;3.78;;;;;;;;;;1925689;67;20088;-73
2021/06/19 04:14:39;;;;;;;8.27;3.38;;;;;;;;;;1912607;75;20084;-71
2021/06/19 04:17:07;;;;;;;4.95;3.00;;;;;;;;;;1913307;75;20358;-72
2021/06/19 04:19:32;;;;;;;6.72;3.78;;;;;;;;;;1913134;75;20095;-72
2021/06/19 04:21:57;;;;;;;7.60;2.88;;;;;;;;;;1913625;75;20095;-72
2021/06/19 04:24:23;;;;;;;7.88;3.15;;;;;;;;;;1914296;67;20439;-72
2021/06/19 04:26:48;;;;;;;6.50;3.00;;;;;;;;;;1910181;75;20095;-73
2021/06/19 04:29:14;;;;;;;7.38;3.33;;;;;;;;;;1909761;75;20088;-73
2021/06/19 04:31:39;;;;;;;7.20;3.25;;;;;;;;;;1910471;75;20086;-72
2021/06/19 04:34:04;;;;;;;8.95;3.83;;;;;;;;;;2049936;67;20087;-73
2021/06/19 04:36:30;;;;;;;7.30;3.50;;;;;;;;;;1912853;75;20082;-73
2021/06/19 04:38:55;;;;;;;7.50;3.50;;;;;;;;;;1980192;67;20386;-73
2021/06/19 04:41:25;;;;;;;7.38;3.67;;;;;;;;;;1998143;67;20124;-73
2021/06/19 04:46:16;;;;;;;9.50;3.70;;;;;;;;;;1909515;75;20096;-74
2021/06/19 04:48:41;;;;;;;6.35;3.45;;;;;;;;;;1911821;67;20088;-72
2021/06/19 04:51:07;;;;;;;5.70;3.30;;;;;;;;;;1914963;67;20150;-74
2021/06/19 04:53:32;;;;;;;5.55;3.92;;;;;;;;;;1910078;75;20091;-72
2021/06/19 04:56:02;;;;;;;5.80;3.00;;;;;;;;;;1909987;75;20076;-73
2021/06/19 04:58:27;;;;;;;6.22;3.20;;;;;;;;;;1910006;75;20084;-73
2021/06/19 05:00:52;;;;;;;6.22;3.20;;;;;;;;;;2055418;67;20079;-73
2021/06/19 05:03:18;;;;;;;6.50;3.28;;;;;;;;;;1910331;75;20076;-73
2021/06/19 05:05:44;;;;;;;8.68;3.33;;;;;;;;;;1910543;75;20102;-73
2021/06/19 05:08:09;;;;;;;5.13;3.17;;;;;;;;;;1910308;75;20096;-73
2021/06/19 05:10:35;;;;;;;7.40;2.97;;;;;;;;;;2035303;67;20079;-75
2021/06/19 05:13:00;;;;;;;6.53;3.33;;;;;;;;;;1912866;75;20528;-73
2021/06/19 05:15:26;;;;;;;7.03;2.92;;;;;;;;;;1912947;75;20084;-72
2021/06/19 05:17:55;;;;;;;4.53;3.17;;;;;;;;;;1912434;75;20272;-74
2021/06/19 05:20:21;;;;;;;4.03;2.83;;;;;;;;;;1915326;67;20164;-72
2021/06/19 05:22:47;;;;;;;6.38;2.83;;;;;;;;;;1909832;75;20128;-73
2021/06/19 05:25:13;;;;;;;6.07;3.45;;;;;;;;;;1910208;75;20109;-73
2021/06/19 05:27:40;;;;;;;9.75;2.75;;;;;;;;;;1915686;67;20462;-73
2021/06/19 05:30:06;;;;;;;6.90;3.25;;;;;;;;;;1913362;67;20124;-73
2021/06/19 05:32:31;;;;;;;9.25;3.13;;;;;;;;;;1912808;67;20084;-73
2021/06/19 05:34:56;;;;;;;7.90;3.30;;;;;;;;;;1910595;75;20098;-72
2021/06/19 05:37:22;;;;;;;5.95;3.05;;;;;;;;;;1910533;75;20142;-73
2021/06/19 05:39:47;;;;;;;8.07;2.70;;;;;;;;;;1912520;67;20091;-70
2021/06/19 05:42:12;;;;;;;7.18;3.20;;;;;;;;;;1917545;67;20556;-73
2021/06/19 05:44:38;;;;;;;3.78;3.25;;;;;;;;;;1910428;75;20224;-72
2021/06/19 05:47:05;;;;;;;7.97;3.20;;;;;;;;;;1911516;75;20090;-74
2021/06/19 05:49:31;;;;;;;6.13;3.20;;;;;;;;;;1923887;67;20389;-72
2021/06/19 05:51:56;;;;;;;15.40;3.10;;;;;;;;;;1910800;75;20084;-73
2021/06/19 05:54:21;;;;;;;4.85;3.05;;;;;;;;;;1910909;75;20407;-72
2021/06/19 05:56:47;;;;;;;6.72;3.05;;;;;;;;;;1912754;75;20405;-72
2021/06/19 05:59:12;;;;;;;4.63;2.85;;;;;;;;;;1912858;75;20161;-71
2021/06/19 06:01:38;;;;;;;4.25;2.50;;;;;;;;;;1912740;75;20084;-73
2021/06/19 06:04:03;;;;;;;9.75;3.10;;;;;;;;;;1912992;75;20094;-73
2021/06/19 06:06:28;;;;;;;6.93;3.33;;;;;;;;;;1912737;75;20081;-74
2021/06/19 06:08:54;;;;;;;4.65;3.25;;;;;;;;;;1909967;75;20076;-72
2021/06/19 06:11:19;;;;;;;6.55;2.90;;;;;;;;;;1911973;75;20079;-73
2021/06/19 06:13:45;;;;;;;8.57;2.90;;;;;;;;;;1911494;75;20087;-71
2021/06/19 06:16:10;;;;;;;4.55;2.95;;;;;;;;;;1911267;75;20103;-71
2021/06/19 06:18:36;;;;;;;7.25;2.97;;;;;;;;;;1909805;75;20080;-71
2021/06/19 06:21:03;;;;;;;2.90;2.60;;;;;;;;;;1909778;75;20599;-71
2021/06/19 06:23:28;;;;;;;5.97;2.85;;;;;;;;;;2001239;67;20080;-71
2021/06/19 06:25:53;;;;;;;7.35;3.50;;;;;;;;;;1911936;75;20139;-71
2021/06/19 06:28:19;;;;;;;8.10;3.25;;;;;;;;;;1912170;75;20086;-70
2021/06/19 06:30:45;;;;;;;4.65;2.50;;;;;;;;;;1908891;75;20083;-71
2021/06/19 06:33:10;;;;;;;4.70;2.60;;;;;;;;;;1909541;75;20091;-71
2021/06/19 06:35:36;;;;;;;3.42;2.33;;;;;;;;;;1909635;75;20516;-71
2021/06/19 06:38:01;;;;;;;2.75;2.30;;;;;;;;;;1947593;67;20103;-71
2021/06/19 06:40:27;;;;;;;7.80;2.40;;;;;;;;;;1916247;67;20095;-72
2021/06/19 06:42:53;;;;;;;3.17;2.45;;;;;;;;;;1909731;75;20076;-71
2021/06/19 06:45:18;;;;;;;6.40;2.45;;;;;;;;;;1912250;75;20087;-72
2021/06/19 06:47:43;;;;;;;2.45;2.25;;;;;;;;;;1912432;75;20399;-71
2021/06/19 06:50:10;;;;;;;5.05;2.38;;;;;;;;;;1912293;75;20087;-71
2021/06/19 06:52:36;;;;;;;3.85;2.85;;;;;;;;;;1912148;75;20123;-72
2021/06/19 06:55:03;;;;;;;3.53;2.85;;;;;;;;;;1912598;75;20096;-71
2021/06/19 06:57:28;;;;;;;3.53;2.58;;;;;;;;;;1909585;75;20401;-72
2021/06/19 06:59:54;;;;;;;5.07;2.03;;;;;;;;;;1910989;75;20497;-72
2021/06/19 07:02:19;;;;;;;3.88;2.38;;;;;;;;;;1909200;75;20088;-72
2021/06/19 07:04:45;;;;;;;4.32;2.42;;;;;;;;;;1910784;75;20090;-72
2021/06/19 07:07:10;;;;;;;3.88;2.40;;;;;;;;;;1912354;75;20079;-72
2021/06/19 07:09:36;;;;;;;3.20;2.00;;;;;;;;;;1912153;75;20090;-71
2021/06/19 07:12:01;;;;;;;5.13;2.15;;;;;;;;;;1912050;75;20515;-72
2021/06/19 07:14:27;;;;;;;1.85;1.75;;;;;;;;;;1912187;75;20520;-71
2021/06/19 07:16:52;;;;;;;3.60;2.10;;;;;;;;;;1911889;75;20139;-72
2021/06/19 07:19:17;;;;;;;2.05;1.80;;;;;;;;;;1914438;67;20080;-70
2021/06/19 07:21:43;;;;;;;4.00;1.98;;;;;;;;;;1912292;67;20079;-71
2021/06/19 07:24:08;;;;;;;4.95;2.30;;;;;;;;;;1912268;67;20084;-72
2021/06/19 07:26:34;;;;;;;2.65;1.83;;;;;;;;;;1912474;75;20080;-72
2021/06/19 07:28:59;;;;;;;4.32;2.00;;;;;;;;;;1918899;67;20115;-72
2021/06/19 07:31:25;;;;;;;2.22;2.00;;;;;;;;;;1911472;67;20084;-72
2021/06/19 07:33:51;;;;;;;2.20;1.50;;;;;;;;;;1913247;67;20507;-71
2021/06/19 07:36:16;;;;;;;3.38;1.92;;;;;;;;;;1909641;75;20218;-71
2021/06/19 07:38:41;;;;;;;4.72;2.03;;;;;;;;;;1909345;75;20096;-71
2021/06/19 07:41:07;;;;;;;3.60;2.05;;;;;;;;;;1959073;67;20139;-72
2021/06/19 07:43:32;;;;;;;3.92;1.63;;;;;;;;;;1912821;75;20403;-72
2021/06/19 07:46:00;;;;;;;4.00;1.52;;;;;;;;;;1912425;75;20084;-71
2021/06/19 07:48:26;;;;;;;7.20;1.73;;;;;;;;;;1912279;75;20080;-70
2021/06/19 07:50:52;;;;;;;3.35;1.77;;;;;;;;;;1914897;67;20595;-70
2021/06/19 07:53:17;;;;;;;3.35;2.00;;;;;;;;;;1909477;67;20114;-72
2021/06/19 07:55:43;;;;;;;3.40;1.70;;;;;;;;;;1921462;67;20485;-73
2021/06/19 07:58:08;;;;;;;4.18;1.70;;;;;;;;;;1910565;67;20137;-71
2021/06/19 08:00:33;;;;;;;3.40;1.70;;;;;;;;;;1910752;75;20088;-71
2021/06/19 08:02:59;;;;;;;2.20;1.70;;;;;;;;;;1910669;75;20496;-71
2021/06/19 08:05:25;;;;;;;6.88;1.60;;;;;;;;;;1912019;75;20090;-71
2021/06/19 08:07:51;;;;;;;3.75;1.80;;;;;;;;;;1950628;67;20084;-72
2021/06/19 08:10:17;;;;;;;1.70;1.60;;;;;;;;;;1911412;67;20567;-73
2021/06/19 08:12:42;;;;;;;2.63;1.73;;;;;;;;;;1912154;75;20095;-73
2021/06/19 08:15:08;;;;;;;6.75;1.90;;;;;;;;;;1912772;75;20141;-73
2021/06/19 08:17:33;;;;;;;3.38;2.00;;;;;;;;;;1910998;75;20080;-71
2021/06/19 08:19:58;;;;;;;3.72;1.80;;;;;;;;;;1910400;75;20080;-72
2021/06/19 08:22:24;;;;;;;2.97;2.17;;;;;;;;;;1910895;75;20118;-71
2021/06/19 08:24:49;;;;;;;5.75;2.15;;;;;;;;;;1910103;75;20087;-71
2021/06/19 08:27:17;;;;;;;2.47;1.85;;;;;;;;;;1940156;67;20098;-71
2021/06/19 08:29:42;;;;;;;6.88;2.38;;;;;;;;;;1911160;67;20397;-71
2021/06/19 08:32:08;;;;;;;1.77;1.50;;;;;;;;;;1909491;68;20088;-71
2021/06/19 08:34:35;;;;;;;2.78;2.08;;;;;;;;;;1909020;75;20138;-71
2021/06/19 08:37:01;;;;;;;5.68;1.90;;;;;;;;;;1919595;67;20096;-71
2021/06/19 08:39:26;;;;;;;2.38;1.80;;;;;;;;;;1909439;75;20096;-71
2021/06/19 08:41:55;;;;;;;7.18;1.80;;;;;;;;;;1909130;75;20084;-71
2021/06/19 08:44:25;;;;;;;7.18;1.58;;;;;;;;;;1909238;75;20088;-72
2021/06/19 08:46:52;;;;;;;4.47;1.67;;;;;;;;;;1910712;75;20492;-72
2021/06/19 08:49:21;;;;;;;2.78;1.85;;;;;;;;;;1989561;67;20139;-72
2021/06/19 08:51:47;;;;;;;1.88;1.67;;;;;;;;;;1912357;75;20204;-72
2021/06/19 08:54:13;;;;;;;4.82;1.90;;;;;;;;;;1911887;75;20507;-71
2021/06/19 08:56:40;;;;;;;6.78;1.75;;;;;;;;;;1983259;67;20099;-72
2021/06/19 08:59:06;;;;;;;6.95;1.92;;;;;;;;;;1909124;75;20095;-71
2021/06/19 09:01:31;;;;;;;2.35;2.10;;;;;;;;;;1909338;75;20088;-73
2021/06/19 09:03:56;;;;;;;6.85;1.70;;;;;;;;;;1909366;75;20378;-72
2021/06/19 09:06:27;;;;;;;3.70;1.90;;;;;;;;;;1960614;67;20433;-72
2021/06/19 09:09:07;;;;;;;3.72;1.63;;;;;;;;;;1912062;75;20096;-73
2021/06/19 09:11:46;;;;;;;8.68;1.90;;;;;;;;;;1911948;75;20083;-72
2021/06/19 09:14:17;;;;;;;4.88;1.88;;;;;;;;;;1912119;75;20519;-72
2021/06/19 09:16:54;;;;;;;2.72;1.85;;;;;;;;;;1959374;67;20087;-72
2021/06/19 09:19:30;;;;;;;20.38;2.38;;;;;;;;;;1912308;75;20500;-72
2021/06/19 09:22:12;;;;;;;32.25;3.63;;;;;;;;;;1911951;75;20099;-72
2021/06/19 09:24:47;;;;;;;1.58;1.30;;;;;;;;;;1912087;75;20089;-71
2021/06/19 09:27:34;;;;;;;3.45;1.60;;;;;;;;;;2014793;67;20142;-70
2021/06/19 09:30:07;;;;;;;2.28;1.60;;;;;;;;;;1908777;75;20505;-71
2021/06/19 09:32:32;;;;;;;7.40;1.65;;;;;;;;;;1909205;75;20091;-71
2021/06/19 09:35:24;;;;;;;9.68;2.20;;;;;;;;;;1908971;75;20107;-71
2021/06/19 09:37:52;;;;;;;6.60;1.67;;;;;;;;;;2046567;67;20397;-71
2021/06/19 09:40:23;;;;;;;2.90;1.60;;;;;;;;;;1911961;75;20187;-71
2021/06/19 09:42:49;;;;;;;5.28;1.95;;;;;;;;;;1912340;75;20084;-71
2021/06/19 09:45:19;;;;;;;2.45;1.42;;;;;;;;;;1988095;67;20084;-72
2021/06/19 09:47:45;;;;;;;2.03;1.52;;;;;;;;;;1909294;75;20095;-71
2021/06/19 09:50:11;;;;;;;3.30;1.40;;;;;;;;;;1909802;75;20432;-71
2021/06/19 09:52:36;;;;;;;4.78;1.27;;;;;;;;;;1909310;75;20363;-72
2021/06/19 09:55:09;;;;;;;2.05;1.30;;;;;;;;;;1940143;67;20412;-72
2021/06/19 09:57:45;;;;;;;2.05;1.45;;;;;;;;;;1909377;75;20135;-71
2021/06/19 10:00:16;;;;;;;2.00;1.75;;;;;;;;;;1909127;75;20080;-71
2021/06/19 10:02:42;;;;;;;1.77;1.67;;;;;;;;;;1909366;75;20386;-71
2021/06/19 10:05:08;;;;;;;2.55;1.77;;;;;;;;;;1974094;67;20090;-72
2021/06/19 10:07:35;;;;;;;2.47;1.50;;;;;;;;;;1912116;75;20144;-71
2021/06/19 10:10:03;;;;;;;3.92;1.95;;;;;;;;;;1911954;75;20535;-71
2021/06/19 10:12:30;;;;;;;3.50;2.03;;;;;;;;;;1911239;75;20084;-72
2021/06/19 10:15:00;;;;;;;3.05;1.90;;;;;;;;;;1912883;67;20084;-73
2021/06/19 10:17:36;;;;;;;2.13;1.60;;;;;;;;;;1909284;75;20107;-72
2021/06/19 10:20:02;;;;;;;5.00;1.48;;;;;;;;;;1908733;75;20131;-71
2021/06/19 10:22:30;;;;;;;2.88;1.20;;;;;;;;;;1909025;75;20084;-72
2021/06/19 10:24:58;;;;;;;2.83;1.15;;;;;;;;;;1954870;67;20076;-71
2021/06/19 10:27:28;;;;;;;1.48;1.20;;;;;;;;;;1912556;75;20079;-71
2021/06/19 10:29:54;;;;;;;6.13;1.50;;;;;;;;;;1912282;75;20083;-71
2021/06/19 10:32:40;;;;;;;1.73;1.55;;;;;;;;;;1912414;75;20084;-71
2021/06/19 10:35:06;;;;;;;2.92;1.77;;;;;;;;;;1911628;68;20094;-71
2021/06/19 10:37:31;;;;;;;2.47;1.30;;;;;;;;;;1909684;75;20397;-70
2021/06/19 10:40:13;;;;;;;2.58;1.08;;;;;;;;;;1909447;75;20134;-70
2021/06/19 10:42:39;;;;;;;6.40;1.40;;;;;;;;;;1913240;67;20431;-71
2021/06/19 10:45:06;;;;;;;5.57;1.55;;;;;;;;;;1913113;75;20526;-71
2021/06/19 10:47:56;;;;;;;6.18;1.20;;;;;;;;;;1913031;75;20090;-70
2021/06/19 10:50:24;;;;;;;7.10;1.42;;;;;;;;;;1912100;67;20141;-71
2021/06/19 10:53:05;;;;;;;4.40;1.23;;;;;;;;;;1909828;75;20181;-70
2021/06/19 10:55:31;;;;;;;3.70;1.42;;;;;;;;;;1909922;75;20501;-71
2021/06/19 10:58:03;;;;;;;4.63;1.35;;;;;;;;;;1910010;75;20136;-71
2021/06/19 11:00:28;;;;;;;4.32;1.30;;;;;;;;;;1918863;67;20131;-70
2021/06/19 11:02:56;;;;;;;1.83;0.98;;;;;;;;;;1984211;67;20076;-71
2021/06/19 11:05:43;;;;;;;2.20;0.80;;;;;;;;;;1909575;75;20119;-72
2021/06/19 11:08:13;;;;;;;1.42;0.95;;;;;;;;;;1909561;75;20084;-70
2021/06/19 11:10:48;;;;;;;1.83;1.10;;;;;;;;;;1910756;67;20088;-71
2021/06/19 11:13:28;;;;;;;1.63;0.98;;;;;;;;;;1909728;75;20106;-71
2021/06/19 11:15:59;;;;;;;3.60;1.15;;;;;;;;;;1909771;75;20142;-70
2021/06/19 11:18:50;;;;;;;1.80;0.93;;;;;;;;;;1909551;75;20489;-70
2021/06/19 11:21:20;;;;;;;0.75;0.75;;;;;;;;;;1912417;67;20086;-69
2021/06/19 11:24:06;;;;;;;3.00;0.95;;;;;;;;;;1912458;75;20140;-70
2021/06/19 11:27:00;;;;;;;2.25;0.90;;;;;;;;;;1912673;75;20090;-69
2021/06/19 11:29:35;;;;;;;2.50;0.90;;;;;;;;;;2049708;67;20076;-71
2021/06/19 11:32:29;;;;;;;6.30;1.23;;;;;;;;;;1910145;67;20519;-71
2021/06/19 11:34:58;;;;;;;3.00;1.13;;;;;;;;;;1909668;75;20132;-69
2021/06/19 11:37:24;;;;;;;1.70;0.82;;;;;;;;;;1909735;75;20151;-70
2021/06/19 11:39:49;;;;;;;9.95;1.42;;;;;;;;;;1909925;75;20080;-69
2021/06/19 11:42:15;;;;;;;3.17;1.55;;;;;;;;;;1915536;67;20193;-68
2021/06/19 11:44:46;;;;;;;3.83;1.05;;;;;;;;;;1912584;75;20080;-69
2021/06/19 11:47:12;;;;;;;3.17;1.23;;;;;;;;;;1912738;75;20083;-69
2021/06/19 11:49:40;;;;;;;8.48;1.20;;;;;;;;;;1912226;75;20084;-69
2021/06/19 11:52:08;;;;;;;2.13;1.00;;;;;;;;;;1912327;67;20111;-69
2021/06/19 11:54:41;;;;;;;4.13;1.30;;;;;;;;;;1909717;75;20088;-70
2021/06/19 11:57:07;;;;;;;1.23;1.13;;;;;;;;;;1909648;75;20401;-70
2021/06/19 11:59:32;;;;;;;4.15;1.05;;;;;;;;;;1912769;67;20075;-70
2021/06/19 12:01:57;;;;;;;1.60;1.05;;;;;;;;;;1912083;75;20102;-70
2021/06/19 12:04:29;;;;;;;2.42;1.00;;;;;;;;;;1911264;67;20104;-70
2021/06/19 12:07:00;;;;;;;1.98;0.98;;;;;;;;;;1909790;75;20084;-70
2021/06/19 12:09:33;;;;;;;3.20;1.40;;;;;;;;;;1909430;75;20093;-69
2021/06/19 12:12:00;;;;;;;1.20;1.10;;;;;;;;;;1909512;75;20099;-69
2021/06/19 12:14:28;;;;;;;1.50;0.98;;;;;;;;;;1914595;67;20088;-70
2021/06/19 12:17:03;;;;;;;11.75;1.42;;;;;;;;;;1912428;75;20139;-70
2021/06/19 12:19:30;;;;;;;15.88;1.45;;;;;;;;;;1912212;75;20084;-69
2021/06/19 12:22:05;;;;;;;1.80;1.00;;;;;;;;;;1912200;75;20080;-70
2021/06/19 12:24:44;;;;;;;1.55;0.90;;;;;;;;;;1914982;67;20152;-71
2021/06/19 12:27:15;;;;;;;2.47;1.05;;;;;;;;;;1912230;75;20090;-69
2021/06/19 12:29:52;;;;;;;2.03;1.02;;;;;;;;;;2066733;67;20090;-70
2021/06/19 12:32:35;;;;;;;3.35;1.10;;;;;;;;;;1912102;75;20083;-70
2021/06/19 12:35:10;;;;;;;3.70;1.17;;;;;;;;;;1909168;75;20103;-69
2021/06/19 12:37:38;;;;;;;5.00;1.20;;;;;;;;;;1909493;75;20092;-70
2021/06/19 12:40:13;;;;;;;10.00;1.83;;;;;;;;;;1909525;75;20080;-70
2021/06/19 12:43:05;;;;;;;6.97;1.30;;;;;;;;;;1917064;67;20417;-70
2021/06/19 12:45:40;;;;;;;3.33;1.25;;;;;;;;;;1909452;75;20432;-70
2021/06/19 12:48:38;;;;;;;2.50;1.10;;;;;;;;;;1909625;75;20087;-70
2021/06/19 12:51:05;;;;;;;2.35;1.00;;;;;;;;;;1909711;75;20084;-70
2021/06/19 12:53:36;;;;;;;3.25;0.98;;;;;;;;;;1910240;75;20079;-69
2021/06/19 12:56:06;;;;;;;1.88;0.98;;;;;;;;;;1912259;75;20080;-71
2021/06/19 12:58:46;;;;;;;10.98;1.17;;;;;;;;;;1912477;75;20127;-69
2021/06/19 13:01:22;;;;;;;5.40;1.20;;;;;;;;;;1911591;67;20108;-72
2021/06/19 13:03:55;;;;;;;1.35;0.82;;;;;;;;;;1912339;75;20091;-70
2021/06/19 13:06:35;;;;;;;2.97;1.17;;;;;;;;;;1912324;75;20083;-70
2021/06/19 13:09:14;;;;;;;1.17;1.00;;;;;;;;;;1911925;75;20076;-70
2021/06/19 13:11:42;;;;;;;4.20;0.95;;;;;;;;;;1960321;67;20080;-72
2021/06/19 13:14:24;;;;;;;8.27;0.80;;;;;;;;;;1910045;67;20136;-71
2021/06/19 13:16:50;;;;;;;2.70;1.20;;;;;;;;;;1909447;75;20084;-71
2021/06/19 13:19:17;;;;;;;1.67;0.93;;;;;;;;;;1909373;75;20080;-72
2021/06/19 13:21:58;;;;;;;5.18;1.10;;;;;;;;;;1961622;67;20132;-70
2021/06/19 13:24:31;;;;;;;11.43;1.70;;;;;;;;;;1913205;75;20191;-70
2021/06/19 13:27:07;;;;;;;2.55;0.90;;;;;;;;;;1912809;75;20088;-71
2021/06/19 13:29:33;;;;;;;3.40;1.08;;;;;;;;;;1982940;67;20268;-72
2021/06/19 13:32:00;;;;;;;3.65;1.10;;;;;;;;;;1979053;67;20081;-72
2021/06/19 13:34:26;;;;;;;2.05;0.93;;;;;;;;;;1909166;75;20513;-71
2021/06/19 13:37:12;;;;;;;1.55;1.00;;;;;;;;;;1909422;75;20090;-72
2021/06/19 13:39:39;;;;;;;4.40;0.98;;;;;;;;;;1909267;75;20080;-72
2021/06/19 13:42:11;;;;;;;1.52;0.70;;;;;;;;;;1910310;67;20091;-71
2021/06/19 13:44:54;;;;;;;0.90;0.77;;;;;;;;;;1911937;75;20505;-71
2021/06/19 13:47:20;;;;;;;2.38;0.82;;;;;;;;;;1912217;75;20088;-71
2021/06/19 13:49:45;;;;;;;1.10;1.00;;;;;;;;;;1911747;75;20396;-70
2021/06/19 13:52:13;;;;;;;1.73;1.00;;;;;;;;;;1911017;67;20409;-70
2021/06/19 13:54:42;;;;;;;4.30;1.58;;;;;;;;;;1909069;75;20493;-70
2021/06/19 13:57:08;;;;;;;4.43;0.85;;;;;;;;;;1909780;75;20088;-70
2021/06/19 13:59:37;;;;;;;1.92;0.85;;;;;;;;;;1909484;75;20081;-71
2021/06/19 14:02:05;;;;;;;9.40;1.40;;;;;;;;;;1910910;67;20168;-69
2021/06/19 14:04:32;;;;;;;5.00;1.17;;;;;;;;;;1912372;75;20506;-70
2021/06/19 14:06:58;;;;;;;2.00;0.90;;;;;;;;;;1912780;75;20090;-71
2021/06/19 14:09:23;;;;;;;2.08;0.95;;;;;;;;;;1912647;67;20141;-69
2021/06/19 14:11:49;;;;;;;6.38;1.10;;;;;;;;;;1912015;75;20094;-71
2021/06/19 14:14:15;;;;;;;3.85;1.10;;;;;;;;;;1912260;75;20133;-70
2021/06/19 14:16:40;;;;;;;1.70;1.23;;;;;;;;;;1912408;75;20496;-70
2021/06/19 14:19:05;;;;;;;16.42;9.23;;;;;;;;;;1970611;67;20100;-72
2021/06/19 14:21:31;;;;;;;2.90;1.10;;;;;;;;;;1955480;67;20091;-71
2021/06/19 14:23:57;;;;;;;6.47;1.17;;;;;;;;;;1912862;75;20086;-71
2021/06/19 14:26:26;;;;;;;2.47;1.17;;;;;;;;;;1912930;75;20084;-71
2021/06/19 14:28:52;;;;;;;3.08;0.98;;;;;;;;;;1913578;67;20076;-70
2021/06/19 14:31:19;;;;;;;1.33;0.80;;;;;;;;;;1985691;67;20084;-71
2021/06/19 14:33:44;;;;;;;1.83;0.95;;;;;;;;;;1913400;67;20138;-71
2021/06/19 14:36:11;;;;;;;2.03;1.00;;;;;;;;;;1976179;67;20088;-71
2021/06/19 14:38:36;;;;;;;2.53;0.90;;;;;;;;;;1912346;75;20088;-70
2021/06/19 14:41:03;;;;;;;1.58;0.93;;;;;;;;;;1954744;67;20088;-71
2021/06/19 14:43:28;;;;;;;2.45;1.10;;;;;;;;;;1932664;67;20513;-70
2021/06/19 14:45:54;;;;;;;1.17;0.90;;;;;;;;;;1922651;67;20084;-70